sensor_id;sensor_type;location;lat;lon;timestamp;temperature;humidity
3055;DHT22;1537;52.018;8.542;2022-10-18T00:02:20;17.10;82.10
3055;DHT22;1537;52.018;8.542;2022-10-18T00:05:45;17.10;82.20
3055;DHT22;1537;52.018;8.542;2022-10-18T00:09:13;17.00;82.20
3055;DHT22;1537;52.018;8.542;2022-10-18T00:12:37;17.10;82.40
3055;DHT22;1537;52.018;8.542;2022-10-18T00:16:03;17.10;82.30
3055;DHT22;1537;52.018;8.542;2022-10-18T00:19:29;17.10;82.20
3055;DHT22;1537;52.018;8.542;2022-10-18T00:22:54;17.10;82.20
3055;DHT22;1537;52.018;8.542;2022-10-18T00:26:19;17.10;81.90
3055;DHT22;1537;52.018;8.542;2022-10-18T00:29:43;17.00;82.00
3055;DHT22;1537;52.018;8.542;2022-10-18T00:33:06;17.00;82.20
3055;DHT22;1537;52.018;8.542;2022-10-18T00:36:33;17.00;82.30
3055;DHT22;1537;52.018;8.542;2022-10-18T00:39:57;17.00;82.50
3055;DHT22;1537;52.018;8.542;2022-10-18T00:43:21;17.10;82.50
3055;DHT22;1537;52.018;8.542;2022-10-18T00:46:46;17.20;82.40
3055;DHT22;1537;52.018;8.542;2022-10-18T00:50:12;17.20;82.20
3055;DHT22;1537;52.018;8.542;2022-10-18T00:53:37;17.20;81.80
3055;DHT22;1537;52.018;8.542;2022-10-18T00:57:01;17.20;81.80
3055;DHT22;1537;52.018;8.542;2022-10-18T01:00:25;17.10;81.80
3055;DHT22;1537;52.018;8.542;2022-10-18T01:03:50;17.10;82.00
3055;DHT22;1537;52.018;8.542;2022-10-18T01:07:35;17.10;82.10
3055;DHT22;1537;52.018;8.542;2022-10-18T01:11:24;17.10;81.90
3055;DHT22;1537;52.018;8.542;2022-10-18T01:14:59;17.10;82.70
3055;DHT22;1537;52.018;8.542;2022-10-18T01:18:29;17.00;82.20
3055;DHT22;1537;52.018;8.542;2022-10-18T01:21:57;17.10;82.30
3055;DHT22;1537;52.018;8.542;2022-10-18T01:25:35;17.10;82.40
3055;DHT22;1537;52.018;8.542;2022-10-18T01:29:11;17.10;82.40
3055;DHT22;1537;52.018;8.542;2022-10-18T01:32:43;17.20;82.30
3055;DHT22;1537;52.018;8.542;2022-10-18T01:36:14;17.20;82.20
3055;DHT22;1537;52.018;8.542;2022-10-18T01:39:45;17.20;82.10
3055;DHT22;1537;52.018;8.542;2022-10-18T01:43:10;17.20;81.90
3055;DHT22;1537;52.018;8.542;2022-10-18T01:46:36;17.20;81.90
3055;DHT22;1537;52.018;8.542;2022-10-18T01:50:07;17.20;81.90
3055;DHT22;1537;52.018;8.542;2022-10-18T01:53:32;17.20;81.70
3055;DHT22;1537;52.018;8.542;2022-10-18T01:57:00;17.30;82.10
3055;DHT22;1537;52.018;8.542;2022-10-18T02:00:31;17.30;81.70
3055;DHT22;1537;52.018;8.542;2022-10-18T02:04:04;17.40;81.60
3055;DHT22;1537;52.018;8.542;2022-10-18T02:07:35;17.40;81.50
3055;DHT22;1537;52.018;8.542;2022-10-18T02:11:02;17.30;81.30
3055;DHT22;1537;52.018;8.542;2022-10-18T02:14:27;17.30;81.30
3055;DHT22;1537;52.018;8.542;2022-10-18T02:17:51;17.40;81.20
3055;DHT22;1537;52.018;8.542;2022-10-18T02:21:18;17.40;80.80
3055;DHT22;1537;52.018;8.542;2022-10-18T02:24:50;17.40;80.90
3055;DHT22;1537;52.018;8.542;2022-10-18T02:28:14;17.30;80.70
3055;DHT22;1537;52.018;8.542;2022-10-18T02:31:43;17.30;80.70
3055;DHT22;1537;52.018;8.542;2022-10-18T02:35:12;17.20;80.60
3055;DHT22;1537;52.018;8.542;2022-10-18T02:38:40;17.20;80.60
3055;DHT22;1537;52.018;8.542;2022-10-18T02:42:08;17.10;80.60
3055;DHT22;1537;52.018;8.542;2022-10-18T02:45:32;17.10;81.60
3055;DHT22;1537;52.018;8.542;2022-10-18T02:48:56;17.00;80.90
3055;DHT22;1537;52.018;8.542;2022-10-18T02:52:21;17.00;81.80
3055;DHT22;1537;52.018;8.542;2022-10-18T02:55:44;16.90;81.00
3055;DHT22;1537;52.018;8.542;2022-10-18T02:59:10;16.90;81.00
3055;DHT22;1537;52.018;8.542;2022-10-18T03:02:34;16.80;80.70
3055;DHT22;1537;52.018;8.542;2022-10-18T03:05:58;16.80;81.00
3055;DHT22;1537;52.018;8.542;2022-10-18T03:09:23;16.80;80.80
3055;DHT22;1537;52.018;8.542;2022-10-18T03:12:46;16.70;80.80
3055;DHT22;1537;52.018;8.542;2022-10-18T03:16:12;16.80;81.00
3055;DHT22;1537;52.018;8.542;2022-10-18T03:19:37;16.80;80.90
3055;DHT22;1537;52.018;8.542;2022-10-18T03:23:02;16.80;80.60
3055;DHT22;1537;52.018;8.542;2022-10-18T03:26:26;16.80;80.50
3055;DHT22;1537;52.018;8.542;2022-10-18T03:29:49;16.80;80.50
3055;DHT22;1537;52.018;8.542;2022-10-18T03:33:15;16.80;80.30
3055;DHT22;1537;52.018;8.542;2022-10-18T03:36:38;16.80;80.30
3055;DHT22;1537;52.018;8.542;2022-10-18T03:40:04;16.80;80.00
3055;DHT22;1537;52.018;8.542;2022-10-18T03:43:27;16.70;79.90
3055;DHT22;1537;52.018;8.542;2022-10-18T03:46:52;16.60;80.10
3055;DHT22;1537;52.018;8.542;2022-10-18T03:50:17;16.60;80.40
3055;DHT22;1537;52.018;8.542;2022-10-18T03:53:42;16.60;80.50
3055;DHT22;1537;52.018;8.542;2022-10-18T03:57:06;16.60;80.30
3055;DHT22;1537;52.018;8.542;2022-10-18T04:00:31;16.60;80.60
3055;DHT22;1537;52.018;8.542;2022-10-18T04:03:57;16.50;80.70
3055;DHT22;1537;52.018;8.542;2022-10-18T04:07:23;16.60;80.90
3055;DHT22;1537;52.018;8.542;2022-10-18T04:10:48;16.60;81.00
3055;DHT22;1537;52.018;8.542;2022-10-18T04:14:12;16.60;80.90
3055;DHT22;1537;52.018;8.542;2022-10-18T04:17:38;16.60;81.10
3055;DHT22;1537;52.018;8.542;2022-10-18T04:21:01;16.60;81.20
3055;DHT22;1537;52.018;8.542;2022-10-18T04:24:26;16.60;81.30
3055;DHT22;1537;52.018;8.542;2022-10-18T04:27:51;16.60;81.10
3055;DHT22;1537;52.018;8.542;2022-10-18T04:31:17;16.50;81.20
3055;DHT22;1537;52.018;8.542;2022-10-18T04:34:41;16.30;81.40
3055;DHT22;1537;52.018;8.542;2022-10-18T04:38:07;16.30;81.70
3055;DHT22;1537;52.018;8.542;2022-10-18T04:41:32;16.30;81.80
3055;DHT22;1537;52.018;8.542;2022-10-18T04:44:56;16.30;82.80
3055;DHT22;1537;52.018;8.542;2022-10-18T04:48:20;16.30;82.10
3055;DHT22;1537;52.018;8.542;2022-10-18T04:51:44;16.30;82.20
3055;DHT22;1537;52.018;8.542;2022-10-18T04:55:08;16.20;82.20
3055;DHT22;1537;52.018;8.542;2022-10-18T04:58:33;16.20;82.30
3055;DHT22;1537;52.018;8.542;2022-10-18T05:01:57;16.10;82.40
3055;DHT22;1537;52.018;8.542;2022-10-18T05:05:21;16.10;82.70
3055;DHT22;1537;52.018;8.542;2022-10-18T05:08:55;16.00;82.90
3055;DHT22;1537;52.018;8.542;2022-10-18T05:12:19;16.00;83.10
3055;DHT22;1537;52.018;8.542;2022-10-18T05:15:46;15.90;83.20
3055;DHT22;1537;52.018;8.542;2022-10-18T05:19:10;16.00;83.40
3055;DHT22;1537;52.018;8.542;2022-10-18T05:22:34;16.00;83.60
3055;DHT22;1537;52.018;8.542;2022-10-18T05:26:01;15.90;83.40
3055;DHT22;1537;52.018;8.542;2022-10-18T05:29:25;15.90;83.60
3055;DHT22;1537;52.018;8.542;2022-10-18T05:32:55;16.00;83.70
3055;DHT22;1537;52.018;8.542;2022-10-18T05:36:20;16.00;83.60
3055;DHT22;1537;52.018;8.542;2022-10-18T05:39:44;16.00;83.50
3055;DHT22;1537;52.018;8.542;2022-10-18T05:43:08;15.90;83.50
3055;DHT22;1537;52.018;8.542;2022-10-18T05:46:32;16.00;83.60
3055;DHT22;1537;52.018;8.542;2022-10-18T05:49:57;16.10;83.70
3055;DHT22;1537;52.018;8.542;2022-10-18T05:53:21;16.10;83.40
3055;DHT22;1537;52.018;8.542;2022-10-18T05:56:58;16.20;83.30
3055;DHT22;1537;52.018;8.542;2022-10-18T06:00:22;16.20;83.30
3055;DHT22;1537;52.018;8.542;2022-10-18T06:03:46;16.20;83.00
3055;DHT22;1537;52.018;8.542;2022-10-18T06:07:11;16.20;82.50
3055;DHT22;1537;52.018;8.542;2022-10-18T06:10:37;16.10;82.50
3055;DHT22;1537;52.018;8.542;2022-10-18T06:14:02;16.10;82.70
3055;DHT22;1537;52.018;8.542;2022-10-18T06:17:26;16.10;83.10
3055;DHT22;1537;52.018;8.542;2022-10-18T06:20:56;16.20;83.00
3055;DHT22;1537;52.018;8.542;2022-10-18T06:24:21;16.30;82.90
3055;DHT22;1537;52.018;8.542;2022-10-18T06:27:45;16.20;82.10
3055;DHT22;1537;52.018;8.542;2022-10-18T06:31:09;16.10;82.20
3055;DHT22;1537;52.018;8.542;2022-10-18T06:34:33;16.20;82.40
3055;DHT22;1537;52.018;8.542;2022-10-18T06:37:57;16.30;82.00
3055;DHT22;1537;52.018;8.542;2022-10-18T06:41:22;16.30;82.00
3055;DHT22;1537;52.018;8.542;2022-10-18T06:44:46;16.30;82.00
3055;DHT22;1537;52.018;8.542;2022-10-18T06:48:11;16.30;81.40
3055;DHT22;1537;52.018;8.542;2022-10-18T06:51:35;16.30;81.50
3055;DHT22;1537;52.018;8.542;2022-10-18T06:54:59;16.30;81.30
3055;DHT22;1537;52.018;8.542;2022-10-18T06:58:28;16.20;81.40
3055;DHT22;1537;52.018;8.542;2022-10-18T07:01:52;16.20;81.40
3055;DHT22;1537;52.018;8.542;2022-10-18T07:05:16;16.10;81.10
3055;DHT22;1537;52.018;8.542;2022-10-18T07:08:40;16.10;81.50
3055;DHT22;1537;52.018;8.542;2022-10-18T07:12:04;16.20;81.40
3055;DHT22;1537;52.018;8.542;2022-10-18T07:15:30;16.20;81.90
3055;DHT22;1537;52.018;8.542;2022-10-18T07:18:54;16.30;81.20
3055;DHT22;1537;52.018;8.542;2022-10-18T07:22:18;16.40;81.30
3055;DHT22;1537;52.018;8.542;2022-10-18T07:25:41;16.50;80.80
3055;DHT22;1537;52.018;8.542;2022-10-18T07:29:07;16.60;80.90
3055;DHT22;1537;52.018;8.542;2022-10-18T07:32:32;16.60;80.50
3055;DHT22;1537;52.018;8.542;2022-10-18T07:35:59;16.70;80.30
3055;DHT22;1537;52.018;8.542;2022-10-18T07:39:23;16.80;80.20
3055;DHT22;1537;52.018;8.542;2022-10-18T07:42:47;16.90;79.90
3055;DHT22;1537;52.018;8.542;2022-10-18T07:46:11;16.90;79.50
3055;DHT22;1537;52.018;8.542;2022-10-18T07:49:37;16.90;79.50
3055;DHT22;1537;52.018;8.542;2022-10-18T07:53:00;17.00;79.30
3055;DHT22;1537;52.018;8.542;2022-10-18T07:56:24;17.00;79.50
3055;DHT22;1537;52.018;8.542;2022-10-18T07:59:47;17.00;79.10
3055;DHT22;1537;52.018;8.542;2022-10-18T08:03:17;16.90;78.90
3055;DHT22;1537;52.018;8.542;2022-10-18T08:06:43;16.90;79.00
3055;DHT22;1537;52.018;8.542;2022-10-18T08:10:07;16.70;79.20
3055;DHT22;1537;52.018;8.542;2022-10-18T08:13:31;16.70;79.20
3055;DHT22;1537;52.018;8.542;2022-10-18T08:16:55;16.60;79.40
3055;DHT22;1537;52.018;8.542;2022-10-18T08:20:19;16.50;79.60
3055;DHT22;1537;52.018;8.542;2022-10-18T08:23:53;16.40;79.70
3055;DHT22;1537;52.018;8.542;2022-10-18T08:27:17;16.30;80.20
3055;DHT22;1537;52.018;8.542;2022-10-18T08:30:41;16.30;80.30
3055;DHT22;1537;52.018;8.542;2022-10-18T08:34:04;16.30;80.60
3055;DHT22;1537;52.018;8.542;2022-10-18T08:37:28;16.40;80.80
3055;DHT22;1537;52.018;8.542;2022-10-18T08:40:53;16.50;80.70
3055;DHT22;1537;52.018;8.542;2022-10-18T08:44:18;16.50;80.90
3055;DHT22;1537;52.018;8.542;2022-10-18T08:47:44;16.60;81.10
3055;DHT22;1537;52.018;8.542;2022-10-18T08:51:16;16.60;80.70
3055;DHT22;1537;52.018;8.542;2022-10-18T08:54:48;16.70;80.80
3055;DHT22;1537;52.018;8.542;2022-10-18T08:58:18;16.80;80.30
3055;DHT22;1537;52.018;8.542;2022-10-18T09:01:58;17.00;80.90
3055;DHT22;1537;52.018;8.542;2022-10-18T09:05:27;17.80;83.00
3055;DHT22;1537;52.018;8.542;2022-10-18T09:09:06;18.60;77.20
3055;DHT22;1537;52.018;8.542;2022-10-18T09:12:51;18.70;75.00
3055;DHT22;1537;52.018;8.542;2022-10-18T09:16:23;18.60;73.70
3055;DHT22;1537;52.018;8.542;2022-10-18T09:19:56;18.90;72.90
3055;DHT22;1537;52.018;8.542;2022-10-18T09:23:30;18.60;73.10
3055;DHT22;1537;52.018;8.542;2022-10-18T09:27:04;18.40;73.40
3055;DHT22;1537;52.018;8.542;2022-10-18T09:30:39;18.30;74.10
3055;DHT22;1537;52.018;8.542;2022-10-18T09:34:08;18.40;74.20
3055;DHT22;1537;52.018;8.542;2022-10-18T09:37:34;18.30;74.00
3055;DHT22;1537;52.018;8.542;2022-10-18T09:40:59;18.40;74.10
3055;DHT22;1537;52.018;8.542;2022-10-18T09:44:26;18.30;74.40
3055;DHT22;1537;52.018;8.542;2022-10-18T09:47:57;18.30;74.30
3055;DHT22;1537;52.018;8.542;2022-10-18T09:51:27;18.40;74.50
3055;DHT22;1537;52.018;8.542;2022-10-18T09:54:54;18.30;73.80
3055;DHT22;1537;52.018;8.542;2022-10-18T09:58:22;18.20;74.00
3055;DHT22;1537;52.018;8.542;2022-10-18T10:01:46;18.20;74.40
3055;DHT22;1537;52.018;8.542;2022-10-18T10:05:11;18.10;74.30
3055;DHT22;1537;52.018;8.542;2022-10-18T10:08:40;18.00;74.60
3055;DHT22;1537;52.018;8.542;2022-10-18T10:12:04;18.00;75.00
3055;DHT22;1537;52.018;8.542;2022-10-18T10:15:28;18.00;75.10
3055;DHT22;1537;52.018;8.542;2022-10-18T10:19:00;17.90;75.40
3055;DHT22;1537;52.018;8.542;2022-10-18T10:22:26;18.10;75.60
3055;DHT22;1537;52.018;8.542;2022-10-18T10:25:54;18.40;74.00
3055;DHT22;1537;52.018;8.542;2022-10-18T10:29:47;18.50;73.00
3055;DHT22;1537;52.018;8.542;2022-10-18T10:33:30;18.50;73.00
3055;DHT22;1537;52.018;8.542;2022-10-18T10:36:54;18.70;72.70
3055;DHT22;1537;52.018;8.542;2022-10-18T10:40:20;19.00;72.00
3055;DHT22;1537;52.018;8.542;2022-10-18T10:43:51;19.40;72.60
3055;DHT22;1537;52.018;8.542;2022-10-18T10:47:26;19.90;67.90
3055;DHT22;1537;52.018;8.542;2022-10-18T10:50:57;20.10;66.90
3055;DHT22;1537;52.018;8.542;2022-10-18T10:54:24;19.90;65.00
3055;DHT22;1537;52.018;8.542;2022-10-18T10:57:50;19.50;66.90
3055;DHT22;1537;52.018;8.542;2022-10-18T11:01:31;19.30;66.90
3055;DHT22;1537;52.018;8.542;2022-10-18T11:04:56;18.70;68.30
3055;DHT22;1537;52.018;8.542;2022-10-18T11:08:38;18.20;68.80
3055;DHT22;1537;52.018;8.542;2022-10-18T11:12:16;17.80;69.00
3055;DHT22;1537;52.018;8.542;2022-10-18T11:15:45;17.60;69.70
3055;DHT22;1537;52.018;8.542;2022-10-18T11:19:28;17.60;70.40
3055;DHT22;1537;52.018;8.542;2022-10-18T11:23:01;17.60;70.50
3055;DHT22;1537;52.018;8.542;2022-10-18T11:26:35;18.00;70.50
3055;DHT22;1537;52.018;8.542;2022-10-18T11:30:26;18.20;68.20
3055;DHT22;1537;52.018;8.542;2022-10-18T11:34:03;18.50;66.90
3055;DHT22;1537;52.018;8.542;2022-10-18T11:37:43;18.50;66.60
3055;DHT22;1537;52.018;8.542;2022-10-18T11:41:21;18.70;65.30
3055;DHT22;1537;52.018;8.542;2022-10-18T11:44:53;18.80;65.10
3055;DHT22;1537;52.018;8.542;2022-10-18T11:48:43;18.80;64.40
3055;DHT22;1537;52.018;8.542;2022-10-18T11:52:15;19.00;65.10
3055;DHT22;1537;52.018;8.542;2022-10-18T11:55:50;19.10;63.90
3055;DHT22;1537;52.018;8.542;2022-10-18T11:59:28;19.10;63.10
3055;DHT22;1537;52.018;8.542;2022-10-18T12:03:20;19.10;62.50
3055;DHT22;1537;52.018;8.542;2022-10-18T12:06:46;19.00;62.50
3055;DHT22;1537;52.018;8.542;2022-10-18T12:10:15;18.90;62.90
3055;DHT22;1537;52.018;8.542;2022-10-18T12:14:02;19.00;62.70
3055;DHT22;1537;52.018;8.542;2022-10-18T12:17:35;19.30;61.60
3055;DHT22;1537;52.018;8.542;2022-10-18T12:21:09;19.40;60.10
3055;DHT22;1537;52.018;8.542;2022-10-18T12:24:34;19.40;59.20
3055;DHT22;1537;52.018;8.542;2022-10-18T12:28:04;19.30;60.00
3055;DHT22;1537;52.018;8.542;2022-10-18T12:31:32;19.20;60.40
3055;DHT22;1537;52.018;8.542;2022-10-18T12:35:01;19.10;59.90
3055;DHT22;1537;52.018;8.542;2022-10-18T12:38:28;19.00;58.60
3055;DHT22;1537;52.018;8.542;2022-10-18T12:41:53;19.10;58.00
3055;DHT22;1537;52.018;8.542;2022-10-18T12:45:26;18.90;58.30
3055;DHT22;1537;52.018;8.542;2022-10-18T12:49:02;18.90;59.10
3055;DHT22;1537;52.018;8.542;2022-10-18T12:52:28;19.00;58.70
3055;DHT22;1537;52.018;8.542;2022-10-18T12:55:53;19.10;55.90
3055;DHT22;1537;52.018;8.542;2022-10-18T12:59:50;19.30;55.80
3055;DHT22;1537;52.018;8.542;2022-10-18T13:07:34;19.60;54.80
3055;DHT22;1537;52.018;8.542;2022-10-18T13:11:27;19.80;54.30
3055;DHT22;1537;52.018;8.542;2022-10-18T13:14:56;19.80;53.60
3055;DHT22;1537;52.018;8.542;2022-10-18T13:18:50;19.90;52.70
3055;DHT22;1537;52.018;8.542;2022-10-18T13:22:26;19.70;51.70
3055;DHT22;1537;52.018;8.542;2022-10-18T13:25:58;19.50;52.40
3055;DHT22;1537;52.018;8.542;2022-10-18T13:29:43;19.60;51.80
3055;DHT22;1537;52.018;8.542;2022-10-18T13:33:21;19.40;50.80
3055;DHT22;1537;52.018;8.542;2022-10-18T13:36:55;19.50;50.60
3055;DHT22;1537;52.018;8.542;2022-10-18T13:40:24;19.40;50.30
3055;DHT22;1537;52.018;8.542;2022-10-18T13:44:10;19.30;50.10
3055;DHT22;1537;52.018;8.542;2022-10-18T13:47:39;19.30;50.20
3055;DHT22;1537;52.018;8.542;2022-10-18T13:51:16;19.20;50.40
3055;DHT22;1537;52.018;8.542;2022-10-18T13:54:59;19.10;50.50
3055;DHT22;1537;52.018;8.542;2022-10-18T13:58:28;19.00;50.80
3055;DHT22;1537;52.018;8.542;2022-10-18T14:02:13;19.00;50.60
3055;DHT22;1537;52.018;8.542;2022-10-18T14:06:06;19.00;50.80
3055;DHT22;1537;52.018;8.542;2022-10-18T14:09:34;19.00;50.60
3055;DHT22;1537;52.018;8.542;2022-10-18T14:13:15;19.00;50.80
3055;DHT22;1537;52.018;8.542;2022-10-18T14:16:45;19.00;50.60
3055;DHT22;1537;52.018;8.542;2022-10-18T14:20:19;18.90;50.80
3055;DHT22;1537;52.018;8.542;2022-10-18T14:23:51;18.90;50.90
3055;DHT22;1537;52.018;8.542;2022-10-18T14:27:17;18.80;50.50
3055;DHT22;1537;52.018;8.542;2022-10-18T14:30:52;18.70;50.50
3055;DHT22;1537;52.018;8.542;2022-10-18T14:34:16;18.70;50.60
3055;DHT22;1537;52.018;8.542;2022-10-18T14:37:42;18.70;50.80
3055;DHT22;1537;52.018;8.542;2022-10-18T14:41:13;18.70;50.10
3055;DHT22;1537;52.018;8.542;2022-10-18T14:44:37;18.50;47.70
3055;DHT22;1537;52.018;8.542;2022-10-18T14:48:05;18.40;47.70
3055;DHT22;1537;52.018;8.542;2022-10-18T14:51:33;18.30;48.10
3055;DHT22;1537;52.018;8.542;2022-10-18T14:54:59;18.20;48.50
3055;DHT22;1537;52.018;8.542;2022-10-18T14:58:24;18.10;48.40
3055;DHT22;1537;52.018;8.542;2022-10-18T15:01:53;18.00;48.40
3055;DHT22;1537;52.018;8.542;2022-10-18T15:05:20;17.90;48.30
3055;DHT22;1537;52.018;8.542;2022-10-18T15:08:45;18.00;49.10
3055;DHT22;1537;52.018;8.542;2022-10-18T15:12:13;17.90;48.90
3055;DHT22;1537;52.018;8.542;2022-10-18T15:15:37;17.90;48.90
3055;DHT22;1537;52.018;8.542;2022-10-18T15:19:04;17.90;49.30
3055;DHT22;1537;52.018;8.542;2022-10-18T15:22:30;17.80;49.30
3055;DHT22;1537;52.018;8.542;2022-10-18T15:26:00;17.60;49.10
3055;DHT22;1537;52.018;8.542;2022-10-18T15:29:30;17.60;49.40
3055;DHT22;1537;52.018;8.542;2022-10-18T15:32:58;17.50;49.60
3055;DHT22;1537;52.018;8.542;2022-10-18T15:36:26;17.50;50.00
3055;DHT22;1537;52.018;8.542;2022-10-18T15:40:17;17.40;50.10
3055;DHT22;1537;52.018;8.542;2022-10-18T15:43:41;17.40;50.10
3055;DHT22;1537;52.018;8.542;2022-10-18T15:47:16;17.30;50.30
3055;DHT22;1537;52.018;8.542;2022-10-18T15:50:45;17.30;50.30
3055;DHT22;1537;52.018;8.542;2022-10-18T15:54:16;17.10;50.50
3055;DHT22;1537;52.018;8.542;2022-10-18T15:57:40;17.10;50.30
3055;DHT22;1537;52.018;8.542;2022-10-18T16:01:05;17.00;50.60
3055;DHT22;1537;52.018;8.542;2022-10-18T16:04:31;17.00;51.10
3055;DHT22;1537;52.018;8.542;2022-10-18T16:07:55;16.90;51.10
3055;DHT22;1537;52.018;8.542;2022-10-18T16:11:21;16.90;51.30
3055;DHT22;1537;52.018;8.542;2022-10-18T16:14:45;16.80;51.30
3055;DHT22;1537;52.018;8.542;2022-10-18T16:18:14;16.70;51.70
3055;DHT22;1537;52.018;8.542;2022-10-18T16:21:40;16.60;52.20
3055;DHT22;1537;52.018;8.542;2022-10-18T16:25:04;16.50;52.10
3055;DHT22;1537;52.018;8.542;2022-10-18T16:28:28;16.50;52.30
3055;DHT22;1537;52.018;8.542;2022-10-18T16:31:53;16.40;52.60
3055;DHT22;1537;52.018;8.542;2022-10-18T16:35:19;16.30;53.10
3055;DHT22;1537;52.018;8.542;2022-10-18T16:38:45;16.20;53.50
3055;DHT22;1537;52.018;8.542;2022-10-18T16:42:09;16.00;53.90
3055;DHT22;1537;52.018;8.542;2022-10-18T16:45:35;15.90;54.30
3055;DHT22;1537;52.018;8.542;2022-10-18T16:48:59;15.70;54.50
3055;DHT22;1537;52.018;8.542;2022-10-18T16:52:23;15.70;54.60
3055;DHT22;1537;52.018;8.542;2022-10-18T16:55:50;15.50;54.80
3055;DHT22;1537;52.018;8.542;2022-10-18T16:59:20;15.30;54.70
3055;DHT22;1537;52.018;8.542;2022-10-18T17:02:48;15.20;54.90
3055;DHT22;1537;52.018;8.542;2022-10-18T17:06:14;15.30;55.20
3055;DHT22;1537;52.018;8.542;2022-10-18T17:09:38;15.20;55.40
3055;DHT22;1537;52.018;8.542;2022-10-18T17:13:03;15.10;55.60
3055;DHT22;1537;52.018;8.542;2022-10-18T17:16:29;15.10;55.90
3055;DHT22;1537;52.018;8.542;2022-10-18T17:19:53;15.00;56.20
3055;DHT22;1537;52.018;8.542;2022-10-18T17:23:17;15.00;56.40
3055;DHT22;1537;52.018;8.542;2022-10-18T17:26:40;14.90;56.90
3055;DHT22;1537;52.018;8.542;2022-10-18T17:30:07;14.80;57.20
3055;DHT22;1537;52.018;8.542;2022-10-18T17:33:31;14.80;57.30
3055;DHT22;1537;52.018;8.542;2022-10-18T17:36:54;14.70;57.70
3055;DHT22;1537;52.018;8.542;2022-10-18T17:40:18;14.60;58.40
3055;DHT22;1537;52.018;8.542;2022-10-18T17:43:45;14.50;58.40
3055;DHT22;1537;52.018;8.542;2022-10-18T17:47:10;14.50;58.60
3055;DHT22;1537;52.018;8.542;2022-10-18T17:50:34;14.40;58.80
3055;DHT22;1537;52.018;8.542;2022-10-18T17:53:58;14.40;59.30
3055;DHT22;1537;52.018;8.542;2022-10-18T17:57:21;14.30;59.30
3055;DHT22;1537;52.018;8.542;2022-10-18T18:00:45;14.30;59.50
3055;DHT22;1537;52.018;8.542;2022-10-18T18:04:10;14.20;59.60
3055;DHT22;1537;52.018;8.542;2022-10-18T18:07:34;14.20;59.90
3055;DHT22;1537;52.018;8.542;2022-10-18T18:10:58;14.00;60.30
3055;DHT22;1537;52.018;8.542;2022-10-18T18:14:22;14.00;60.50
3055;DHT22;1537;52.018;8.542;2022-10-18T18:17:46;14.00;60.70
3055;DHT22;1537;52.018;8.542;2022-10-18T18:21:21;13.90;60.80
3055;DHT22;1537;52.018;8.542;2022-10-18T18:24:44;13.90;61.10
3055;DHT22;1537;52.018;8.542;2022-10-18T18:28:08;13.80;61.50
3055;DHT22;1537;52.018;8.542;2022-10-18T18:31:32;13.70;61.40
3055;DHT22;1537;52.018;8.542;2022-10-18T18:35:04;13.70;61.70
3055;DHT22;1537;52.018;8.542;2022-10-18T18:38:30;13.60;61.70
3055;DHT22;1537;52.018;8.542;2022-10-18T18:41:54;13.60;61.70
3055;DHT22;1537;52.018;8.542;2022-10-18T18:45:18;13.60;61.80
3055;DHT22;1537;52.018;8.542;2022-10-18T18:48:42;13.50;62.00
3055;DHT22;1537;52.018;8.542;2022-10-18T18:52:06;13.40;63.30
3055;DHT22;1537;52.018;8.542;2022-10-18T18:55:31;13.40;62.70
3055;DHT22;1537;52.018;8.542;2022-10-18T18:58:56;13.40;62.60
3055;DHT22;1537;52.018;8.542;2022-10-18T19:02:21;13.30;62.60
3055;DHT22;1537;52.018;8.542;2022-10-18T19:05:45;13.30;63.80
3055;DHT22;1537;52.018;8.542;2022-10-18T19:09:11;13.20;63.00
3055;DHT22;1537;52.018;8.542;2022-10-18T19:12:41;13.20;63.90
3055;DHT22;1537;52.018;8.542;2022-10-18T19:16:23;13.20;63.30
3055;DHT22;1537;52.018;8.542;2022-10-18T19:19:48;13.10;63.40
3055;DHT22;1537;52.018;8.542;2022-10-18T19:23:11;13.10;63.40
3055;DHT22;1537;52.018;8.542;2022-10-18T19:26:38;13.00;63.70
3055;DHT22;1537;52.018;8.542;2022-10-18T19:30:09;12.90;64.20
3055;DHT22;1537;52.018;8.542;2022-10-18T19:33:34;12.90;64.50
3055;DHT22;1537;52.018;8.542;2022-10-18T19:37:17;12.80;65.10
3055;DHT22;1537;52.018;8.542;2022-10-18T19:40:41;12.70;65.30
3055;DHT22;1537;52.018;8.542;2022-10-18T19:44:05;12.70;65.30
3055;DHT22;1537;52.018;8.542;2022-10-18T19:47:30;12.70;65.60
3055;DHT22;1537;52.018;8.542;2022-10-18T19:50:53;12.60;65.80
3055;DHT22;1537;52.018;8.542;2022-10-18T19:54:17;12.60;65.80
3055;DHT22;1537;52.018;8.542;2022-10-18T19:57:41;12.50;66.10
3055;DHT22;1537;52.018;8.542;2022-10-18T20:01:04;12.50;66.50
3055;DHT22;1537;52.018;8.542;2022-10-18T20:04:30;12.40;66.90
3055;DHT22;1537;52.018;8.542;2022-10-18T20:07:56;12.40;66.90
3055;DHT22;1537;52.018;8.542;2022-10-18T20:11:21;12.40;67.40
3055;DHT22;1537;52.018;8.542;2022-10-18T20:14:44;12.30;67.50
3055;DHT22;1537;52.018;8.542;2022-10-18T20:18:08;12.30;67.40
3055;DHT22;1537;52.018;8.542;2022-10-18T20:21:34;12.30;67.70
3055;DHT22;1537;52.018;8.542;2022-10-18T20:24:59;12.30;68.00
3055;DHT22;1537;52.018;8.542;2022-10-18T20:28:22;12.20;67.80
3055;DHT22;1537;52.018;8.542;2022-10-18T20:31:46;12.20;68.00
3055;DHT22;1537;52.018;8.542;2022-10-18T20:35:10;12.20;68.20
3055;DHT22;1537;52.018;8.542;2022-10-18T20:38:36;12.10;68.30
3055;DHT22;1537;52.018;8.542;2022-10-18T20:42:00;12.10;68.50
3055;DHT22;1537;52.018;8.542;2022-10-18T20:45:24;12.10;68.50
3055;DHT22;1537;52.018;8.542;2022-10-18T20:48:48;12.10;68.50
3055;DHT22;1537;52.018;8.542;2022-10-18T20:52:12;12.00;68.50
3055;DHT22;1537;52.018;8.542;2022-10-18T20:55:37;12.00;68.60
3055;DHT22;1537;52.018;8.542;2022-10-18T20:59:02;12.00;68.80
3055;DHT22;1537;52.018;8.542;2022-10-18T21:02:27;12.00;68.80
3055;DHT22;1537;52.018;8.542;2022-10-18T21:05:51;12.00;68.90
3055;DHT22;1537;52.018;8.542;2022-10-18T21:09:16;11.90;69.00
3055;DHT22;1537;52.018;8.542;2022-10-18T21:12:41;11.90;69.30
3055;DHT22;1537;52.018;8.542;2022-10-18T21:16:06;11.90;69.40
3055;DHT22;1537;52.018;8.542;2022-10-18T21:19:30;11.80;69.50
3055;DHT22;1537;52.018;8.542;2022-10-18T21:22:54;11.80;69.60
3055;DHT22;1537;52.018;8.542;2022-10-18T21:26:21;11.80;69.60
3055;DHT22;1537;52.018;8.542;2022-10-18T21:29:48;11.80;69.60
3055;DHT22;1537;52.018;8.542;2022-10-18T21:33:11;11.80;69.80
3055;DHT22;1537;52.018;8.542;2022-10-18T21:36:36;11.70;69.80
3055;DHT22;1537;52.018;8.542;2022-10-18T21:40:01;11.70;70.00
3055;DHT22;1537;52.018;8.542;2022-10-18T21:43:27;11.70;70.00
3055;DHT22;1537;52.018;8.542;2022-10-18T21:46:53;11.60;70.10
3055;DHT22;1537;52.018;8.542;2022-10-18T21:50:18;11.60;70.10
3055;DHT22;1537;52.018;8.542;2022-10-18T21:53:43;11.50;70.50
3055;DHT22;1537;52.018;8.542;2022-10-18T21:57:07;11.50;70.70
3055;DHT22;1537;52.018;8.542;2022-10-18T22:00:31;11.50;70.80
3055;DHT22;1537;52.018;8.542;2022-10-18T22:03:58;11.50;70.90
3055;DHT22;1537;52.018;8.542;2022-10-18T22:07:21;11.40;70.90
3055;DHT22;1537;52.018;8.542;2022-10-18T22:10:46;11.40;71.30
3055;DHT22;1537;52.018;8.542;2022-10-18T22:14:10;11.40;71.70
3055;DHT22;1537;52.018;8.542;2022-10-18T22:17:34;11.40;71.80
3055;DHT22;1537;52.018;8.542;2022-10-18T22:21:02;11.40;71.70
3055;DHT22;1537;52.018;8.542;2022-10-18T22:24:26;11.40;71.80
3055;DHT22;1537;52.018;8.542;2022-10-18T22:27:50;11.30;71.80
3055;DHT22;1537;52.018;8.542;2022-10-18T22:31:15;11.30;72.00
3055;DHT22;1537;52.018;8.542;2022-10-18T22:34:40;11.30;72.10
3055;DHT22;1537;52.018;8.542;2022-10-18T22:38:05;11.20;72.00
3055;DHT22;1537;52.018;8.542;2022-10-18T22:41:29;11.20;72.10